createdAt,value
2019-02-15T00:01:47.695Z,6.60
2019-02-15T00:04:14.100Z,7.13
2019-02-15T00:06:40.431Z,7.23
2019-02-15T00:09:06.759Z,7.13
2019-02-15T00:11:33.191Z,8.17
2019-02-15T00:14:01.157Z,8.17
2019-02-15T00:16:27.534Z,8.33
2019-02-15T00:19:11.128Z,8.57
2019-02-15T00:21:37.675Z,8.77
2019-02-15T00:24:04.073Z,7.97
2019-02-15T00:26:30.379Z,8.30
2019-02-15T00:28:56.858Z,7.63
2019-02-15T00:31:23.096Z,7.73
2019-02-15T00:33:49.521Z,7.93
2019-02-15T00:36:15.854Z,7.33
2019-02-15T00:38:42.109Z,7.00
2019-02-15T00:41:08.509Z,7.50
2019-02-15T00:43:34.838Z,7.37
2019-02-15T00:46:09.156Z,6.90
2019-02-15T00:48:35.689Z,7.57
2019-02-15T00:51:03.976Z,6.50
2019-02-15T00:53:35.112Z,7.00
2019-02-15T00:56:18.344Z,7.33
2019-02-15T00:58:55.418Z,6.90
2019-02-15T01:01:26.668Z,7.20
2019-02-15T01:03:57.530Z,6.70
2019-02-15T01:06:28.458Z,6.70
2019-02-15T01:08:57.042Z,7.43
2019-02-15T01:11:28.169Z,6.77
2019-02-15T01:13:54.499Z,6.60
2019-02-15T01:16:20.828Z,6.87
2019-02-15T01:18:47.160Z,6.73
2019-02-15T01:21:13.497Z,6.80
2019-02-15T01:23:39.820Z,6.93
2019-02-15T01:26:19.979Z,6.50
2019-02-15T01:29:06.457Z,7.07
2019-02-15T01:31:46.729Z,6.07
2019-02-15T01:34:23.708Z,6.57
2019-02-15T01:36:54.567Z,6.87
2019-02-15T01:39:25.615Z,6.17
2019-02-15T01:41:56.832Z,6.97
2019-02-15T01:44:25.010Z,7.17
2019-02-15T01:46:53.201Z,6.43
2019-02-15T01:49:19.522Z,6.47
2019-02-15T01:51:45.942Z,6.40
2019-02-15T01:54:12.300Z,6.57
2019-02-15T01:56:38.601Z,6.50
2019-02-15T01:59:05.146Z,6.87
2019-02-15T02:01:31.570Z,6.30
2019-02-15T02:03:57.901Z,6.60
2019-02-15T02:06:24.229Z,6.77
2019-02-15T02:08:50.664Z,6.60
2019-02-15T02:11:16.992Z,6.53
2019-02-15T02:13:49.325Z,6.83
2019-02-15T02:16:11.597Z,6.40
2019-02-15T02:18:37.928Z,7.07
2019-02-15T02:21:04.192Z,6.67
2019-02-15T02:23:30.691Z,6.50
2019-02-15T02:25:57.001Z,6.43
2019-02-15T02:28:23.306Z,5.33
2019-02-15T02:30:49.650Z,5.60
2019-02-15T02:33:16.012Z,6.33
2019-02-15T02:35:42.299Z,5.87
2019-02-15T02:38:08.903Z,6.57
2019-02-15T02:40:35.209Z,5.50
2019-02-15T02:43:01.541Z,6.00
2019-02-15T02:45:27.869Z,5.43
2019-02-15T02:47:54.207Z,5.43
2019-02-15T02:50:20.533Z,5.50
2019-02-15T02:52:46.859Z,5.70
2019-02-15T02:55:13.188Z,4.93
2019-02-15T02:57:39.522Z,6.00
2019-02-15T03:00:05.977Z,5.53
2019-02-15T03:02:32.268Z,5.50
2019-02-15T03:04:58.631Z,5.40
2019-02-15T03:07:24.943Z,5.87
2019-02-15T03:09:51.276Z,5.30
2019-02-15T03:12:17.811Z,5.83
2019-02-15T03:14:44.139Z,5.77
2019-02-15T03:17:11.339Z,5.40
2019-02-15T03:19:37.823Z,5.80
2019-02-15T03:22:04.585Z,5.77
2019-02-15T03:24:30.996Z,5.97
2019-02-15T03:26:57.316Z,5.33
2019-02-15T03:29:23.630Z,5.13
2019-02-15T03:31:49.989Z,4.93
2019-02-15T03:34:16.319Z,5.77
2019-02-15T03:36:47.392Z,5.87
2019-02-15T03:39:21.471Z,5.40
2019-02-15T03:41:47.800Z,5.60
2019-02-15T03:44:21.739Z,5.13
2019-02-15T03:46:42.193Z,5.23
2019-02-15T03:49:08.643Z,5.13
2019-02-15T03:51:35.065Z,5.30
2019-02-15T03:54:02.591Z,5.60
2019-02-15T03:56:29.225Z,5.00
2019-02-15T03:58:56.008Z,5.33
2019-02-15T04:01:22.360Z,5.13
2019-02-15T04:03:48.663Z,4.87
2019-02-15T04:06:15.037Z,4.90
2019-02-15T04:08:41.279Z,5.00
2019-02-15T04:11:07.662Z,5.20
2019-02-15T04:13:34.087Z,5.27
2019-02-15T04:16:00.419Z,4.57
2019-02-15T04:18:26.746Z,5.20
2019-02-15T04:20:53.181Z,5.20
2019-02-15T04:23:19.511Z,5.13
2019-02-15T04:25:45.881Z,4.73
2019-02-15T04:28:12.379Z,4.87
2019-02-15T04:30:38.705Z,4.37
2019-02-15T04:33:05.034Z,4.57
2019-02-15T04:35:31.366Z,5.33
2019-02-15T04:37:59.531Z,4.90
2019-02-15T04:40:25.694Z,4.80
2019-02-15T04:42:52.007Z,5.50
2019-02-15T04:45:18.331Z,5.30
2019-02-15T04:47:44.861Z,4.90
2019-02-15T04:50:11.193Z,4.80
2019-02-15T04:52:37.631Z,5.50
2019-02-15T04:55:05.186Z,5.27
2019-02-15T04:57:31.512Z,5.30
2019-02-15T04:59:57.843Z,5.20
2019-02-15T05:02:24.289Z,5.77
2019-02-15T05:04:50.497Z,5.20
2019-02-15T05:07:16.841Z,4.73
2019-02-15T05:09:43.164Z,4.77
2019-02-15T05:12:09.495Z,5.57
2019-02-15T05:14:35.754Z,5.30
2019-02-15T05:17:02.152Z,4.93
2019-02-15T05:19:28.485Z,5.90
2019-02-15T05:21:54.818Z,4.67
2019-02-15T05:24:21.368Z,5.00
2019-02-15T05:26:48.001Z,5.57
2019-02-15T05:29:14.306Z,5.07
2019-02-15T05:31:40.962Z,4.97
2019-02-15T05:34:07.385Z,5.67
2019-02-15T05:36:33.819Z,5.30
2019-02-15T05:39:00.365Z,4.87
2019-02-15T05:41:26.657Z,4.90
2019-02-15T05:43:52.946Z,5.10
2019-02-15T05:46:19.446Z,5.87
2019-02-15T05:48:45.777Z,5.60
2019-02-15T05:51:12.351Z,5.97
2019-02-15T05:53:38.745Z,5.70
2019-02-15T05:56:05.076Z,5.47
2019-02-15T05:58:31.408Z,4.70
2019-02-15T06:00:57.836Z,5.07
2019-02-15T06:03:24.147Z,5.53
2019-02-15T06:05:50.442Z,5.27
2019-02-15T06:08:16.830Z,5.13
2019-02-15T06:10:43.222Z,4.70
2019-02-15T06:13:09.885Z,5.40
2019-02-15T06:15:36.195Z,5.70
2019-02-15T06:18:02.721Z,5.23
2019-02-15T06:20:29.052Z,5.03
2019-02-15T06:22:55.584Z,5.03
2019-02-15T06:25:22.023Z,5.10
2019-02-15T06:27:48.365Z,4.90
2019-02-15T06:30:14.876Z,5.67
2019-02-15T06:32:41.063Z,6.10
2019-02-15T06:35:07.718Z,7.40
2019-02-15T06:37:34.032Z,10.70
2019-02-15T06:40:00.333Z,9.37
2019-02-15T06:42:26.639Z,8.00
2019-02-15T06:44:53.061Z,7.33
2019-02-15T06:47:19.649Z,6.77
2019-02-15T06:49:46.032Z,6.80
2019-02-15T06:52:12.490Z,6.57
2019-02-15T06:54:38.792Z,6.30
2019-02-15T06:57:05.228Z,6.80
2019-02-15T06:59:33.560Z,6.90
2019-02-15T07:02:07.715Z,6.20
2019-02-15T07:04:52.901Z,5.87
2019-02-15T07:07:19.145Z,5.77
2019-02-15T07:09:45.445Z,5.60
2019-02-15T07:12:11.878Z,5.87
2019-02-15T07:14:38.312Z,5.43
2019-02-15T07:17:04.645Z,5.63
2019-02-15T07:19:31.174Z,5.23
2019-02-15T07:21:57.610Z,5.57
2019-02-15T07:24:23.940Z,5.50
2019-02-15T07:26:50.614Z,5.23
2019-02-15T07:29:16.912Z,5.10
2019-02-15T07:31:43.245Z,6.10
2019-02-15T07:34:09.776Z,5.70
2019-02-15T07:36:36.067Z,6.20
2019-02-15T07:39:04.177Z,5.47
2019-02-15T07:41:30.514Z,5.80
2019-02-15T07:43:57.265Z,6.07
2019-02-15T07:46:23.778Z,5.47
2019-02-15T07:48:50.008Z,5.47
2019-02-15T07:51:16.337Z,5.27
2019-02-15T07:53:44.335Z,5.00
2019-02-15T07:56:10.632Z,6.03
2019-02-15T07:58:37.294Z,5.40
2019-02-15T08:01:03.550Z,5.40
2019-02-15T08:03:30.042Z,6.37
2019-02-15T08:05:56.312Z,6.23
2019-02-15T08:08:22.600Z,5.43
2019-02-15T08:10:49.248Z,5.57
2019-02-15T08:13:16.101Z,6.30
2019-02-15T08:15:51.341Z,6.03
2019-02-15T08:18:10.726Z,6.50
2019-02-15T08:20:37.423Z,6.00
2019-02-15T08:23:03.655Z,6.70
2019-02-15T08:25:30.388Z,6.83
2019-02-15T08:27:56.719Z,6.77
2019-02-15T08:30:22.977Z,6.80
2019-02-15T08:32:49.494Z,6.60
2019-02-15T08:35:15.818Z,6.23
2019-02-15T08:37:42.147Z,7.00
2019-02-15T08:40:09.677Z,7.10
2019-02-15T08:42:36.028Z,6.47
2019-02-15T08:45:05.025Z,7.17
2019-02-15T08:47:31.303Z,6.67
2019-02-15T08:49:57.684Z,6.80
2019-02-15T08:52:23.861Z,7.10
2019-02-15T08:54:50.348Z,6.50
2019-02-15T08:57:16.899Z,6.73
2019-02-15T08:59:43.169Z,7.13
2019-02-15T09:02:11.381Z,6.57
2019-02-15T09:04:37.662Z,6.60
2019-02-15T09:07:04.046Z,6.37
2019-02-15T09:09:30.293Z,6.83
2019-02-15T09:11:56.627Z,6.23
2019-02-15T09:14:22.934Z,6.80
2019-02-15T09:16:49.673Z,6.57
2019-02-15T09:19:16.002Z,6.33
2019-02-15T09:21:42.280Z,6.07
2019-02-15T09:24:08.594Z,6.80
2019-02-15T09:26:35.099Z,6.13
2019-02-15T09:29:03.173Z,6.00
2019-02-15T09:31:29.498Z,6.43
2019-02-15T09:33:55.762Z,6.57
2019-02-15T09:36:22.160Z,5.93
2019-02-15T09:38:48.593Z,5.90
2019-02-15T09:41:14.927Z,5.97
2019-02-15T09:43:41.182Z,6.43
2019-02-15T09:46:07.583Z,6.33
2019-02-15T09:48:34.013Z,6.07
2019-02-15T09:51:00.347Z,5.87
2019-02-15T09:53:26.781Z,6.03
2019-02-15T09:55:53.064Z,5.87
2019-02-15T09:58:19.442Z,6.10
2019-02-15T10:00:45.765Z,6.27
2019-02-15T10:03:12.107Z,6.00
2019-02-15T10:05:38.425Z,6.27
2019-02-15T10:08:04.859Z,6.10
2019-02-15T10:10:31.148Z,6.07
2019-02-15T10:12:57.430Z,6.00
2019-02-15T10:15:23.855Z,6.27
2019-02-15T10:17:50.188Z,6.33
2019-02-15T10:20:16.510Z,6.80
2019-02-15T10:22:42.831Z,6.40
2019-02-15T10:25:09.538Z,5.83
2019-02-15T10:27:35.834Z,6.10
2019-02-15T10:30:03.076Z,5.70
2019-02-15T10:32:29.388Z,6.07
2019-02-15T10:34:55.822Z,5.80
2019-02-15T10:37:22.049Z,5.60
2019-02-15T10:39:50.320Z,6.37
2019-02-15T10:42:16.762Z,6.07
2019-02-15T10:44:43.004Z,6.03
2019-02-15T10:47:14.324Z,5.47
2019-02-15T10:49:37.498Z,6.07
2019-02-15T10:52:03.919Z,5.77
2019-02-15T10:54:30.202Z,5.83
2019-02-15T10:56:56.585Z,5.77
2019-02-15T10:59:22.884Z,5.80
2019-02-15T11:01:49.261Z,5.47
2019-02-15T11:04:15.675Z,5.53
2019-02-15T11:06:42.005Z,5.40
2019-02-15T11:09:10.814Z,5.17
2019-02-15T11:11:37.137Z,5.27
2019-02-15T11:14:03.474Z,5.87
2019-02-15T11:16:29.889Z,6.13
2019-02-15T11:18:56.221Z,5.23
2019-02-15T11:21:22.550Z,5.40
2019-02-15T11:23:48.979Z,5.50
2019-02-15T11:26:15.249Z,5.40
2019-02-15T11:28:41.640Z,5.23
2019-02-15T11:31:08.204Z,5.50
2019-02-15T11:33:34.951Z,6.10
2019-02-15T11:36:01.232Z,5.57
2019-02-15T11:38:27.550Z,5.40
2019-02-15T11:40:53.906Z,6.00
2019-02-15T11:43:20.236Z,5.23
2019-02-15T11:45:46.668Z,5.10
2019-02-15T11:48:12.986Z,5.83
2019-02-15T11:50:39.330Z,5.57
2019-02-15T11:53:05.659Z,6.03
2019-02-15T11:55:32.096Z,5.43
2019-02-15T11:57:58.422Z,5.70
2019-02-15T12:00:32.447Z,5.60
2019-02-15T12:02:58.866Z,4.53
2019-02-15T12:05:25.166Z,5.83
2019-02-15T12:07:51.471Z,5.70
2019-02-15T12:10:17.916Z,5.70
2019-02-15T12:12:44.242Z,5.63
2019-02-15T12:15:10.592Z,5.77
2019-02-15T12:17:37.042Z,5.30
2019-02-15T12:20:07.114Z,5.20
2019-02-15T12:22:33.431Z,5.53
2019-02-15T12:24:59.729Z,5.80
2019-02-15T12:27:26.113Z,5.83
2019-02-15T12:29:52.355Z,5.60
2019-02-15T12:32:18.782Z,5.40
2019-02-15T12:34:45.109Z,5.53
2019-02-15T12:37:12.673Z,5.33
2019-02-15T12:39:38.943Z,4.97
2019-02-15T12:42:05.531Z,5.33
2019-02-15T12:44:31.859Z,5.47
2019-02-15T12:46:58.189Z,5.53
2019-02-15T12:49:24.497Z,5.27
2019-02-15T12:51:50.801Z,5.90
2019-02-15T12:54:17.187Z,5.47
2019-02-15T12:56:43.510Z,5.40
2019-02-15T12:59:09.841Z,6.53
2019-02-15T13:01:36.104Z,5.40
2019-02-15T13:04:02.522Z,5.67
2019-02-15T13:06:29.049Z,5.60
2019-02-15T13:08:55.572Z,5.87
2019-02-15T13:11:21.904Z,5.33
2019-02-15T13:13:48.150Z,4.80
2019-02-15T13:16:14.565Z,5.33
2019-02-15T13:18:40.835Z,5.10
2019-02-15T13:21:07.228Z,5.43
2019-02-15T13:23:33.567Z,5.23
2019-02-15T13:26:08.222Z,5.30
2019-02-15T13:28:27.982Z,5.50
2019-02-15T13:30:54.302Z,5.47
2019-02-15T13:33:20.616Z,5.20
2019-02-15T13:35:47.278Z,6.10
2019-02-15T13:38:13.688Z,5.37
2019-02-15T13:40:39.969Z,5.40
2019-02-15T13:43:06.302Z,5.03
2019-02-15T13:45:32.611Z,5.27
2019-02-15T13:47:58.909Z,5.50
2019-02-15T13:50:25.339Z,5.40
2019-02-15T13:52:51.624Z,5.87
2019-02-15T13:55:18.027Z,5.60
2019-02-15T13:57:44.435Z,5.50
2019-02-15T14:00:11.992Z,6.00
2019-02-15T14:02:38.427Z,5.90
2019-02-15T14:05:08.078Z,5.70
2019-02-15T14:07:35.177Z,5.70
2019-02-15T14:10:01.460Z,5.20
2019-02-15T14:12:27.782Z,4.87
2019-02-15T14:14:54.271Z,5.37
2019-02-15T14:17:20.704Z,5.80
2019-02-15T14:19:46.978Z,6.03
2019-02-15T14:22:13.514Z,5.57
2019-02-15T14:24:39.898Z,5.37
2019-02-15T14:27:06.331Z,5.93
2019-02-15T14:29:32.966Z,6.13
2019-02-15T14:31:59.531Z,5.67
2019-02-15T14:34:25.940Z,5.87
2019-02-15T14:36:52.267Z,6.27
2019-02-15T14:39:18.600Z,6.30
2019-02-15T14:41:44.934Z,5.93
2019-02-15T14:44:11.259Z,6.87
2019-02-15T14:46:57.409Z,6.10
2019-02-15T14:49:43.577Z,5.97
2019-02-15T14:52:09.987Z,5.90
2019-02-15T14:54:36.554Z,6.57
2019-02-15T14:57:03.056Z,6.43
2019-02-15T14:59:29.437Z,7.23
2019-02-15T15:01:55.697Z,7.50
2019-02-15T15:04:22.002Z,6.70
2019-02-15T15:06:48.320Z,6.57
2019-02-15T15:09:14.702Z,6.33
2019-02-15T15:11:41.035Z,6.83
2019-02-15T15:14:07.682Z,6.20
2019-02-15T15:16:33.984Z,5.83
2019-02-15T15:19:00.264Z,6.43
2019-02-15T15:21:26.570Z,5.77
2019-02-15T15:23:52.875Z,6.13
2019-02-15T15:26:19.219Z,6.17
2019-02-15T15:28:45.499Z,6.30
2019-02-15T15:31:11.806Z,6.03
2019-02-15T15:33:38.211Z,7.87
2019-02-15T15:36:04.644Z,6.67
2019-02-15T15:38:30.973Z,6.77
2019-02-15T15:40:57.255Z,6.43
2019-02-15T15:43:23.718Z,6.50
2019-02-15T15:45:49.964Z,6.80
2019-02-15T15:48:22.523Z,6.87
2019-02-15T15:50:44.366Z,7.07
2019-02-15T15:53:10.630Z,6.83
2019-02-15T15:55:37.025Z,6.70
2019-02-15T15:58:03.368Z,6.97
2019-02-15T16:00:38.419Z,6.10
2019-02-15T16:02:57.860Z,7.30
2019-02-15T16:05:24.292Z,7.00
2019-02-15T16:07:50.624Z,6.27
2019-02-15T16:10:16.957Z,5.93
2019-02-15T16:12:43.214Z,7.00
2019-02-15T16:15:11.049Z,6.30
2019-02-15T16:17:37.378Z,6.60
2019-02-15T16:20:05.964Z,5.63
2019-02-15T16:22:33.213Z,6.13
2019-02-15T16:24:59.916Z,6.30
2019-02-15T16:27:26.387Z,6.67
2019-02-15T16:29:53.665Z,5.67
2019-02-15T16:32:20.854Z,6.50
2019-02-15T16:34:49.125Z,5.60
2019-02-15T16:37:15.397Z,6.03
2019-02-15T16:39:41.723Z,6.13
2019-02-15T16:42:08.055Z,5.73
2019-02-15T16:44:34.293Z,5.80
2019-02-15T16:47:00.870Z,6.10
2019-02-15T16:49:27.347Z,7.30
2019-02-15T16:51:54.605Z,7.70
2019-02-15T16:54:22.797Z,8.43
2019-02-15T16:56:49.259Z,9.27
2019-02-15T16:59:16.461Z,8.70
2019-02-15T17:01:42.792Z,8.40
2019-02-15T17:04:09.123Z,7.60
2019-02-15T17:06:37.195Z,7.93
2019-02-15T17:09:06.166Z,7.03
2019-02-15T17:11:33.442Z,5.87
2019-02-15T17:13:59.767Z,6.63
2019-02-15T17:16:26.099Z,5.97
2019-02-15T17:18:52.440Z,6.87
2019-02-15T17:21:18.861Z,6.63
2019-02-15T17:23:45.450Z,5.77
2019-02-15T17:26:11.738Z,5.77
2019-02-15T17:28:38.068Z,6.73
2019-02-15T17:31:04.489Z,6.70
2019-02-15T17:33:31.237Z,7.57
2019-02-15T17:35:57.566Z,7.23
2019-02-15T17:38:25.127Z,6.03
2019-02-15T17:40:51.450Z,5.93
2019-02-15T17:43:19.832Z,6.17
2019-02-15T17:45:46.745Z,6.10
2019-02-15T17:48:15.354Z,6.47
2019-02-15T17:50:42.096Z,5.50
2019-02-15T17:53:08.528Z,6.70
2019-02-15T17:55:38.144Z,5.90
2019-02-15T17:58:05.625Z,5.43
2019-02-15T18:00:33.848Z,5.87
2019-02-15T18:03:20.539Z,5.67
2019-02-15T18:05:47.320Z,5.40
2019-02-15T18:08:13.753Z,5.70
2019-02-15T18:10:39.976Z,5.40
2019-02-15T18:13:08.482Z,5.77
2019-02-15T18:15:35.164Z,5.87
2019-02-15T18:18:02.043Z,4.90
2019-02-15T18:20:28.371Z,5.73
2019-02-15T18:22:55.177Z,6.07
2019-02-15T18:25:22.554Z,5.90
2019-02-15T18:27:49.090Z,5.47
2019-02-15T18:30:15.636Z,6.17
2019-02-15T18:32:42.511Z,5.93
2019-02-15T18:35:11.413Z,5.53
2019-02-15T18:37:37.805Z,6.13
2019-02-15T18:40:07.321Z,5.83
2019-02-15T18:42:33.628Z,6.23
2019-02-15T18:45:00.245Z,6.63
2019-02-15T18:47:26.637Z,6.90
2019-02-15T18:49:53.066Z,7.23
2019-02-15T18:52:19.369Z,7.07
2019-02-15T18:54:45.704Z,6.50
2019-02-15T18:57:12.027Z,6.43
2019-02-15T18:59:38.277Z,6.50
2019-02-15T19:02:04.588Z,7.83
2019-02-15T19:04:30.922Z,7.63
2019-02-15T19:06:57.470Z,7.20
2019-02-15T19:09:23.786Z,7.63
2019-02-15T19:11:50.661Z,7.57
2019-02-15T19:14:17.058Z,8.37
2019-02-15T19:16:43.391Z,8.63
2019-02-15T19:19:09.850Z,7.60
2019-02-15T19:21:36.152Z,7.37
2019-02-15T19:24:02.584Z,7.23
2019-02-15T19:26:28.804Z,7.27
2019-02-15T19:28:55.140Z,7.23
2019-02-15T19:31:21.471Z,7.67
2019-02-15T19:33:48.078Z,7.03
2019-02-15T19:36:14.437Z,7.90
2019-02-15T19:38:40.705Z,7.67
2019-02-15T19:41:07.204Z,6.70
2019-02-15T19:43:33.532Z,7.53
2019-02-15T19:46:00.431Z,7.90
2019-02-15T19:48:26.807Z,8.10
2019-02-15T19:50:53.137Z,8.80
2019-02-15T19:53:21.218Z,8.67
2019-02-15T19:55:47.746Z,7.87
2019-02-15T19:58:14.077Z,7.73
2019-02-15T20:00:40.330Z,6.90
2019-02-15T20:03:06.758Z,6.23
2019-02-15T20:05:33.079Z,6.40
2019-02-15T20:07:59.715Z,6.50
2019-02-15T20:10:26.040Z,7.13
2019-02-15T20:12:52.350Z,6.70
2019-02-15T20:15:18.660Z,7.60
2019-02-15T20:17:44.986Z,7.37
2019-02-15T20:20:12.775Z,7.90
2019-02-15T20:22:39.358Z,7.10
2019-02-15T20:25:08.214Z,7.40
2019-02-15T20:27:34.550Z,7.90
2019-02-15T20:30:03.174Z,7.87
2019-02-15T20:32:28.899Z,7.23
2019-02-15T20:34:55.230Z,7.70
2019-02-15T20:37:21.493Z,7.47
2019-02-15T20:39:48.057Z,7.90
2019-02-15T20:42:14.268Z,8.00
2019-02-15T20:44:40.559Z,7.47
2019-02-15T20:47:07.248Z,9.20
2019-02-15T20:49:33.666Z,9.13
2019-02-15T20:51:59.928Z,9.00
2019-02-15T20:54:26.263Z,9.80
2019-02-15T20:56:52.658Z,8.90
2019-02-15T20:59:18.861Z,9.77
2019-02-15T21:01:45.217Z,10.53
2019-02-15T21:04:11.498Z,11.47
2019-02-15T21:06:38.187Z,11.23
2019-02-15T21:09:04.928Z,10.87
2019-02-15T21:11:31.222Z,11.17
2019-02-15T21:13:59.138Z,11.40
2019-02-15T21:16:25.799Z,11.30
2019-02-15T21:19:00.172Z,10.43
2019-02-15T21:21:26.512Z,10.40
2019-02-15T21:23:52.889Z,10.50
2019-02-15T21:26:19.193Z,11.20
2019-02-15T21:28:45.482Z,10.40
2019-02-15T21:31:11.791Z,11.03
2019-02-15T21:33:38.177Z,10.43
2019-02-15T21:36:04.487Z,10.20
2019-02-15T21:38:30.764Z,9.73
2019-02-15T21:40:57.053Z,8.60
2019-02-15T21:43:23.279Z,8.50
2019-02-15T21:45:49.667Z,7.80
2019-02-15T21:48:16.041Z,6.97
2019-02-15T21:50:42.269Z,6.83
2019-02-15T21:53:08.831Z,7.40
2019-02-15T21:55:35.236Z,6.70
2019-02-15T21:58:01.923Z,7.13
2019-02-15T22:00:28.765Z,6.40
2019-02-15T22:02:55.033Z,6.43
2019-02-15T22:05:21.310Z,6.37
2019-02-15T22:07:47.615Z,6.10
2019-02-15T22:10:13.968Z,6.03
2019-02-15T22:12:40.266Z,6.20
2019-02-15T22:15:12.434Z,6.63
2019-02-15T22:17:38.748Z,5.53
2019-02-15T22:20:08.150Z,6.50
2019-02-15T22:22:34.460Z,6.03
2019-02-15T22:25:00.826Z,5.20
2019-02-15T22:27:27.056Z,5.10
2019-02-15T22:29:53.303Z,5.37
2019-02-15T22:32:19.582Z,5.00
2019-02-15T22:34:45.940Z,4.90
2019-02-15T22:37:12.272Z,5.83
2019-02-15T22:39:38.543Z,5.60
2019-02-15T22:42:05.036Z,5.57
2019-02-15T22:44:31.326Z,4.73
2019-02-15T22:46:57.615Z,5.43
2019-02-15T22:49:23.899Z,5.93
2019-02-15T22:51:50.919Z,5.33
2019-02-15T22:54:17.162Z,5.47
2019-02-15T22:56:43.479Z,5.30
2019-02-15T22:59:09.859Z,5.47
2019-02-15T23:01:36.293Z,5.33
2019-02-15T23:04:02.681Z,5.93
2019-02-15T23:06:29.054Z,5.67
2019-02-15T23:08:55.639Z,5.57
2019-02-15T23:11:22.329Z,5.27
2019-02-15T23:13:48.660Z,4.90
2019-02-15T23:16:14.947Z,5.00
2019-02-15T23:18:41.322Z,5.70
2019-02-15T23:21:07.542Z,5.00
2019-02-15T23:23:33.879Z,5.27
2019-02-15T23:26:00.210Z,5.13
2019-02-15T23:28:26.448Z,4.90
2019-02-15T23:30:52.729Z,4.43
2019-02-15T23:33:19.010Z,5.57
2019-02-15T23:35:47.255Z,5.20
2019-02-15T23:38:13.602Z,5.00
2019-02-15T23:40:39.935Z,5.20
2019-02-15T23:43:06.177Z,4.87
2019-02-15T23:45:32.493Z,5.03
2019-02-15T23:47:58.820Z,5.10
2019-02-15T23:50:26.825Z,5.00
2019-02-15T23:52:53.050Z,5.20
2019-02-15T23:55:19.335Z,5.10
2019-02-15T23:57:45.746Z,5.17
